Time;durP1;ratioP1;P1;durP2;ratioP2;P2;SDS_P1;SDS_P2;PMS_P1;PMS_P2;Temp;Humidity;BMP_temperature;BMP_pressure;BME280_temperature;BME280_humidity;BME280_pressure;Samples;Min_cycle;Max_cycle;Signal;HPM_P1;HPM_P2
2022/01/05 00:00:05;;;;;;;0.80;0.80;;;5.80;99.90;;;;;;5075261;28;20226;-64
2022/01/05 00:02:30;;;;;;;1.05;1.05;;;5.80;99.90;;;;;;5075021;28;20185;-64
2022/01/05 00:04:56;;;;;;;0.60;0.60;;;5.80;99.90;;;;;;5074884;28;20177;-64
2022/01/05 00:07:22;;;;;;;0.90;0.90;;;5.80;99.90;;;;;;5074693;28;20198;-65
2022/01/05 00:09:48;;;;;;;1.27;1.20;;;5.80;99.90;;;;;;5074879;28;20262;-64
2022/01/05 00:12:14;;;;;;;1.13;1.02;;;5.70;99.90;;;;;;5074143;28;20578;-65
2022/01/05 00:14:41;;;;;;;1.10;0.93;;;5.70;99.90;;;;;;5073628;28;20653;-64
2022/01/05 00:17:07;;;;;;;1.37;1.27;;;5.70;99.90;;;;;;5074622;28;20200;-65
2022/01/05 00:19:34;;;;;;;0.70;0.70;;;5.70;99.90;;;;;;5074346;28;20188;-64
2022/01/05 00:22:00;;;;;;;1.95;1.45;;;5.70;99.90;;;;;;5074290;28;20231;-64
2022/01/05 00:24:26;;;;;;;1.08;0.98;;;5.70;99.90;;;;;;5074533;28;20168;-64
2022/01/05 00:26:52;;;;;;;0.63;0.40;;;5.70;99.90;;;;;;5074221;28;20191;-63
2022/01/05 00:29:18;;;;;;;0.77;0.77;;;5.80;99.90;;;;;;5074422;28;20174;-64
2022/01/05 00:31:43;;;;;;;1.27;0.63;;;5.80;99.90;;;;;;5073828;28;20196;-65
2022/01/05 00:34:09;;;;;;;0.40;0.40;;;5.80;99.90;;;;;;5074169;28;20240;-64
2022/01/05 00:36:35;;;;;;;1.13;1.03;;;5.90;99.90;;;;;;5074192;28;20188;-63
2022/01/05 00:39:00;;;;;;;0.70;0.60;;;5.90;99.90;;;;;;5073802;28;20214;-63
2022/01/05 00:41:26;;;;;;;0.60;0.60;;;5.90;99.90;;;;;;5073368;28;20290;-63
2022/01/05 00:43:52;;;;;;;0.90;0.90;;;5.90;99.90;;;;;;5073772;28;20195;-63
2022/01/05 00:46:17;;;;;;;0.60;0.60;;;5.90;99.90;;;;;;5058272;28;20181;-64
2022/01/05 00:48:43;;;;;;;2.40;0.80;;;5.90;99.90;;;;;;5053931;28;20173;-63
2022/01/05 00:51:09;;;;;;;0.60;0.60;;;5.90;99.90;;;;;;5053370;28;20199;-63
2022/01/05 00:53:35;;;;;;;1.25;0.60;;;5.90;99.90;;;;;;5053501;28;20182;-64
2022/01/05 00:56:02;;;;;;;0.57;0.50;;;5.90;99.90;;;;;;5053609;28;20166;-64
2022/01/05 00:58:27;;;;;;;0.30;0.30;;;5.90;99.90;;;;;;5053677;28;20404;-64
2022/01/05 01:00:53;;;;;;;0.80;0.60;;;5.90;99.90;;;;;;5053701;28;20215;-64
2022/01/05 01:03:19;;;;;;;0.40;0.40;;;5.90;99.90;;;;;;5053062;28;20283;-63
2022/01/05 01:05:45;;;;;;;0.43;0.43;;;5.90;99.90;;;;;;5053936;28;20415;-62
2022/01/05 01:08:10;;;;;;;0.57;0.57;;;5.80;99.90;;;;;;5053802;28;20586;-63
2022/01/05 01:10:36;;;;;;;0.80;0.80;;;5.80;99.90;;;;;;5053729;28;20526;-63
2022/01/05 01:13:02;;;;;;;0.52;0.52;;;5.80;99.90;;;;;;5053064;28;20215;-63
2022/01/05 01:15:28;;;;;;;3.22;0.68;;;5.80;99.90;;;;;;5053722;28;20494;-64
2022/01/05 01:17:54;;;;;;;0.30;0.30;;;5.90;99.90;;;;;;5053373;28;20188;-63
2022/01/05 01:20:20;;;;;;;0.30;0.30;;;5.90;99.90;;;;;;5052698;28;20227;-64
2022/01/05 01:22:47;;;;;;;0.40;0.30;;;5.90;99.90;;;;;;5052823;28;20203;-63
2022/01/05 01:25:13;;;;;;;0.50;0.50;;;5.90;99.90;;;;;;5053599;28;20164;-64
2022/01/05 01:27:42;;;;;;;0.60;0.40;;;5.90;99.90;;;;;;5053380;28;20582;-65
2022/01/05 01:30:09;;;;;;;0.50;0.50;;;5.90;99.90;;;;;;5053242;28;20161;-64
2022/01/05 01:32:35;;;;;;;0.30;0.30;;;6.00;99.90;;;;;;5052841;28;20688;-63
2022/01/05 01:35:03;;;;;;;0.30;0.30;;;6.00;99.90;;;;;;5053058;28;20176;-65
2022/01/05 01:37:29;;;;;;;0.40;0.40;;;6.00;99.90;;;;;;5053169;28;20423;-64
2022/01/05 01:39:54;;;;;;;0.57;0.57;;;6.00;99.90;;;;;;5053405;28;20623;-64
2022/01/05 01:42:20;;;;;;;1.00;0.87;;;6.00;99.90;;;;;;5052651;28;20177;-65
2022/01/05 01:44:45;;;;;;;0.60;0.60;;;6.10;99.90;;;;;;5056076;28;20224;-64
2022/01/05 01:47:11;;;;;;;0.40;0.40;;;6.10;99.90;;;;;;5072885;28;20659;-63
2022/01/05 01:49:37;;;;;;;0.60;0.40;;;6.10;99.90;;;;;;5073014;28;20209;-64
2022/01/05 01:52:03;;;;;;;0.33;0.33;;;6.10;99.90;;;;;;5073225;28;20207;-63
2022/01/05 01:54:29;;;;;;;0.80;0.60;;;6.10;99.90;;;;;;5073268;28;20591;-63
2022/01/05 01:56:56;;;;;;;0.40;0.40;;;6.20;99.90;;;;;;5072870;28;20189;-64
2022/01/05 01:59:21;;;;;;;0.40;0.40;;;6.20;99.90;;;;;;5072973;28;20170;-62
2022/01/05 02:01:47;;;;;;;0.60;0.40;;;6.20;99.90;;;;;;5072555;28;20176;-64
2022/01/05 02:04:13;;;;;;;0.30;0.30;;;6.20;99.90;;;;;;5072717;28;20184;-63
2022/01/05 02:06:39;;;;;;;0.30;0.30;;;6.30;99.90;;;;;;5072873;28;20244;-63
2022/01/05 02:09:05;;;;;;;1.43;0.40;;;6.30;99.90;;;;;;5073198;28;20256;-63
2022/01/05 02:11:33;;;;;;;1.70;0.60;;;6.30;99.90;;;;;;5072585;28;20202;-64
2022/01/05 02:13:59;;;;;;;0.40;0.32;;;6.30;99.90;;;;;;5072518;28;20509;-64
2022/01/05 02:16:31;;;;;;;0.50;0.40;;;6.30;99.90;;;;;;5072828;28;20273;-65
2022/01/05 02:18:58;;;;;;;0.30;0.30;;;6.40;99.90;;;;;;5073229;28;20166;-65
2022/01/05 02:21:25;;;;;;;0.40;0.40;;;6.40;99.90;;;;;;5071143;28;20258;-64
2022/01/05 02:23:51;;;;;;;0.55;0.32;;;6.40;99.90;;;;;;5073169;28;20286;-65
2022/01/05 02:26:16;;;;;;;0.30;0.30;;;6.40;99.90;;;;;;5073079;28;20258;-64
2022/01/05 02:28:43;;;;;;;0.50;0.50;;;6.40;99.90;;;;;;5072980;28;20701;-64
2022/01/05 02:31:09;;;;;;;0.50;0.50;;;6.40;99.90;;;;;;5073332;28;20202;-65
2022/01/05 02:33:35;;;;;;;0.30;0.20;;;6.40;99.90;;;;;;5076284;28;20175;-63
2022/01/05 02:36:04;;;;;;;0.30;0.30;;;6.40;99.90;;;;;;5076123;28;20170;-64
2022/01/05 02:38:29;;;;;;;0.60;0.60;;;6.40;99.90;;;;;;5076112;28;20166;-63
2022/01/05 02:40:55;;;;;;;0.40;0.40;;;6.40;99.90;;;;;;5076302;28;20234;-65
2022/01/05 02:43:21;;;;;;;0.40;0.40;;;6.40;99.90;;;;;;5075974;28;20231;-64
2022/01/05 02:45:47;;;;;;;0.30;0.30;;;6.50;99.90;;;;;;5064645;28;20186;-63
2022/01/05 02:48:12;;;;;;;0.30;0.27;;;6.50;99.90;;;;;;5055944;28;20532;-63
2022/01/05 02:50:38;;;;;;;0.30;0.30;;;6.40;99.90;;;;;;5056072;28;20201;-64
2022/01/05 02:53:04;;;;;;;0.37;0.33;;;6.50;99.90;;;;;;5055936;28;20233;-62
2022/01/05 02:55:29;;;;;;;0.30;0.30;;;6.50;99.90;;;;;;5056157;28;20170;-63
2022/01/05 02:57:55;;;;;;;0.33;0.33;;;6.60;99.90;;;;;;5055758;28;20428;-63
2022/01/05 03:00:21;;;;;;;0.50;0.50;;;6.50;99.90;;;;;;5055743;28;20198;-62
2022/01/05 03:02:46;;;;;;;0.40;0.40;;;6.60;99.90;;;;;;5055377;28;20174;-64
2022/01/05 03:05:12;;;;;;;0.30;0.30;;;6.60;99.90;;;;;;5055662;28;20207;-64
2022/01/05 03:07:41;;;;;;;0.30;0.30;;;6.60;99.90;;;;;;5055473;28;20439;-62
2022/01/05 03:10:08;;;;;;;0.40;0.40;;;6.60;99.90;;;;;;5055529;28;20543;-64
2022/01/05 03:12:34;;;;;;;0.40;0.40;;;6.60;99.90;;;;;;5055003;28;20228;-63
2022/01/05 03:15:00;;;;;;;0.53;0.53;;;6.60;99.90;;;;;;5055433;28;20201;-63
2022/01/05 03:17:25;;;;;;;0.30;0.30;;;6.60;99.90;;;;;;5055307;28;20524;-64
2022/01/05 03:19:51;;;;;;;0.40;0.40;;;6.60;99.90;;;;;;5054064;28;20266;-62
2022/01/05 03:22:17;;;;;;;0.43;0.43;;;6.60;99.90;;;;;;5054801;28;20173;-64
2022/01/05 03:24:42;;;;;;;0.40;0.40;;;6.60;99.90;;;;;;5055479;28;20260;-63
2022/01/05 03:27:08;;;;;;;0.40;0.40;;;6.60;99.90;;;;;;5055064;28;20581;-63
2022/01/05 03:29:33;;;;;;;0.30;0.20;;;6.60;99.90;;;;;;5055143;28;20628;-63
2022/01/05 03:31:59;;;;;;;0.50;0.40;;;6.60;99.90;;;;;;5054476;28;20543;-64
2022/01/05 03:34:26;;;;;;;0.40;0.40;;;6.50;99.90;;;;;;5054760;28;20535;-64
2022/01/05 03:36:54;;;;;;;0.50;0.50;;;6.50;99.90;;;;;;5054950;28;20528;-63
2022/01/05 03:39:20;;;;;;;0.38;0.38;;;6.50;99.90;;;;;;5053383;28;20176;-62
2022/01/05 03:41:46;;;;;;;0.50;0.30;;;6.50;99.90;;;;;;5054462;28;20686;-62
2022/01/05 03:44:11;;;;;;;0.40;0.40;;;6.60;99.90;;;;;;5054809;28;20165;-63
2022/01/05 03:46:37;;;;;;;0.40;0.40;;;6.60;99.90;;;;;;5072701;28;20218;-63
2022/01/05 03:49:03;;;;;;;0.30;0.30;;;6.60;99.90;;;;;;5073363;28;20208;-63
2022/01/05 03:51:29;;;;;;;0.40;0.30;;;6.60;99.90;;;;;;5074181;28;20193;-64
2022/01/05 03:53:55;;;;;;;0.50;0.50;;;6.60;99.90;;;;;;5074606;28;20167;-63
2022/01/05 03:56:20;;;;;;;0.30;0.30;;;6.60;99.90;;;;;;5074717;28;20415;-63
2022/01/05 03:58:46;;;;;;;0.30;0.30;;;6.60;99.90;;;;;;5072978;28;20234;-63
2022/01/05 04:01:12;;;;;;;0.30;0.30;;;6.60;99.90;;;;;;5074224;28;20176;-63
2022/01/05 04:03:38;;;;;;;0.40;0.40;;;6.70;99.90;;;;;;5074506;28;20190;-65
2022/01/05 04:06:05;;;;;;;1.77;0.55;;;6.70;99.90;;;;;;5074324;28;20266;-63
2022/01/05 04:08:31;;;;;;;0.30;0.30;;;6.60;99.90;;;;;;5074479;28;20224;-64
2022/01/05 04:10:56;;;;;;;0.77;0.33;;;6.60;99.90;;;;;;5074189;28;20496;-63
2022/01/05 04:13:22;;;;;;;0.30;0.30;;;6.70;99.90;;;;;;5073980;28;20246;-64
2022/01/05 04:15:48;;;;;;;0.30;0.30;;;6.60;99.90;;;;;;5074287;28;20164;-63
2022/01/05 04:18:14;;;;;;;0.50;0.50;;;6.60;99.90;;;;;;5074086;28;20189;-62
2022/01/05 04:20:40;;;;;;;0.30;0.30;;;6.60;99.90;;;;;;5074310;28;20179;-63
2022/01/05 04:23:06;;;;;;;0.30;0.30;;;6.60;99.90;;;;;;5073853;28;20631;-63
2022/01/05 04:25:33;;;;;;;0.30;0.30;;;6.60;99.90;;;;;;5072871;28;20915;-64
2022/01/05 04:28:03;;;;;;;0.30;0.30;;;6.60;99.90;;;;;;5073955;28;20438;-64
2022/01/05 04:30:29;;;;;;;0.40;0.40;;;6.60;99.90;;;;;;5073832;28;20201;-65
2022/01/05 04:32:54;;;;;;;0.63;0.40;;;6.60;99.90;;;;;;5073591;28;20521;-64
2022/01/05 04:35:21;;;;;;;0.33;0.33;;;6.60;99.90;;;;;;5074047;28;20230;-63
2022/01/05 04:37:46;;;;;;;0.40;0.35;;;6.60;99.90;;;;;;5073722;28;20279;-63
2022/01/05 04:40:13;;;;;;;0.30;0.30;;;6.60;99.90;;;;;;5073729;28;20232;-64
2022/01/05 04:42:39;;;;;;;0.60;0.50;;;6.60;99.90;;;;;;5073454;28;20397;-64
2022/01/05 04:45:05;;;;;;;0.30;0.30;;;6.60;99.90;;;;;;5068391;28;20260;-64
2022/01/05 04:47:32;;;;;;;0.40;0.40;;;6.50;99.90;;;;;;5053689;28;20231;-63
2022/01/05 04:49:57;;;;;;;0.40;0.40;;;6.50;99.90;;;;;;5053851;28;20169;-63
2022/01/05 04:52:23;;;;;;;0.43;0.43;;;6.40;99.90;;;;;;5053330;28;20283;-65
2022/01/05 04:54:49;;;;;;;0.50;0.43;;;6.30;99.90;;;;;;5053007;28;20194;-64
2022/01/05 04:57:15;;;;;;;2.85;1.15;;;6.20;99.90;;;;;;5053533;28;20546;-65
2022/01/05 04:59:41;;;;;;;0.60;0.60;;;6.20;99.90;;;;;;5054042;28;20172;-65
2022/01/05 05:02:07;;;;;;;0.40;0.40;;;6.10;99.90;;;;;;5053153;28;20754;-65
2022/01/05 05:04:33;;;;;;;0.30;0.30;;;6.10;99.90;;;;;;5053508;28;20798;-63
2022/01/05 05:06:58;;;;;;;0.70;0.63;;;6.10;99.90;;;;;;5053838;28;20188;-64
2022/01/05 05:09:24;;;;;;;1.70;0.40;;;6.10;99.90;;;;;;5054006;28;20628;-64
2022/01/05 05:11:51;;;;;;;0.30;0.30;;;6.00;99.90;;;;;;5052997;28;20276;-63
2022/01/05 05:14:17;;;;;;;1.58;0.60;;;6.00;99.90;;;;;;5053310;28;20252;-63
2022/01/05 05:16:42;;;;;;;0.60;0.60;;;6.00;99.90;;;;;;5053305;28;20217;-64
2022/01/05 05:19:08;;;;;;;0.87;0.50;;;6.00;99.90;;;;;;5053433;28;20371;-64
2022/01/05 05:21:34;;;;;;;0.60;0.60;;;6.00;99.90;;;;;;5053068;28;20166;-65
2022/01/05 05:24:00;;;;;;;0.50;0.50;;;6.00;99.90;;;;;;5053479;28;20180;-64
2022/01/05 05:26:25;;;;;;;0.67;0.63;;;6.00;99.90;;;;;;5053124;28;20201;-64
2022/01/05 05:28:51;;;;;;;0.73;0.73;;;5.90;99.90;;;;;;5052974;28;20579;-64
2022/01/05 05:31:17;;;;;;;1.63;1.07;;;5.70;99.90;;;;;;5052600;28;20237;-63
2022/01/05 05:33:43;;;;;;;0.80;0.80;;;5.40;99.90;;;;;;5051709;28;20197;-65
2022/01/05 05:36:09;;;;;;;1.00;0.93;;;5.10;99.90;;;;;;5053057;28;20278;-62
2022/01/05 05:38:34;;;;;;;1.10;1.10;;;4.80;99.90;;;;;;5053185;28;20166;-64
2022/01/05 05:41:00;;;;;;;1.27;1.17;;;4.60;99.90;;;;;;5053005;28;20174;-65
2022/01/05 05:43:26;;;;;;;0.70;0.70;;;4.40;99.90;;;;;;5052899;28;20185;-65
2022/01/05 05:45:51;;;;;;;1.73;1.13;;;4.10;99.90;;;;;;5064929;28;20635;-64
2022/01/05 05:48:17;;;;;;;1.17;0.97;;;4.00;99.90;;;;;;5073145;28;20192;-63
2022/01/05 05:50:43;;;;;;;0.80;0.70;;;3.80;99.90;;;;;;5072847;28;20586;-64
2022/01/05 05:53:09;;;;;;;0.80;0.80;;;3.70;99.90;;;;;;5072406;28;20407;-63
2022/01/05 05:55:34;;;;;;;1.37;1.20;;;3.50;99.90;;;;;;5072841;28;20173;-62
2022/01/05 05:58:01;;;;;;;1.07;1.00;;;3.40;99.90;;;;;;5072729;28;20189;-64
2022/01/05 06:00:29;;;;;;;1.13;1.08;;;3.30;99.90;;;;;;5072923;28;20169;-64
2022/01/05 06:02:56;;;;;;;1.27;1.27;;;3.30;99.90;;;;;;5072506;28;20157;-64
2022/01/05 06:05:22;;;;;;;1.15;1.15;;;3.20;99.90;;;;;;5071593;28;20189;-64
2022/01/05 06:07:47;;;;;;;1.00;1.00;;;3.20;99.90;;;;;;5076522;28;20650;-64
2022/01/05 06:10:13;;;;;;;1.90;0.70;;;3.20;99.90;;;;;;5075299;28;20164;-64
2022/01/05 06:12:39;;;;;;;0.57;0.57;;;3.20;99.90;;;;;;5076355;28;20172;-63
2022/01/05 06:15:06;;;;;;;0.90;0.90;;;3.20;99.90;;;;;;5076724;28;20529;-63
2022/01/05 06:17:31;;;;;;;1.35;1.25;;;3.20;99.90;;;;;;5075169;28;20480;-63
2022/01/05 06:19:57;;;;;;;1.07;1.00;;;3.20;99.90;;;;;;5076662;28;20612;-64
2022/01/05 06:22:22;;;;;;;1.10;1.10;;;3.20;99.90;;;;;;5074235;28;20168;-63
2022/01/05 06:24:49;;;;;;;4.50;1.10;;;3.30;99.90;;;;;;5069386;28;20214;-62
2022/01/05 06:27:15;;;;;;;0.98;0.98;;;3.30;99.90;;;;;;5056286;28;20201;-64
2022/01/05 06:29:41;;;;;;;0.80;0.80;;;3.40;99.90;;;;;;5056531;28;20632;-64
2022/01/05 06:32:07;;;;;;;1.63;1.52;;;3.40;99.90;;;;;;5055944;28;20459;-64
2022/01/05 06:34:33;;;;;;;1.13;1.02;;;3.40;99.90;;;;;;5056494;28;20534;-65
2022/01/05 06:36:59;;;;;;;1.50;1.40;;;3.40;99.90;;;;;;5055946;28;20201;-64
2022/01/05 06:39:24;;;;;;;1.80;1.70;;;3.40;99.90;;;;;;5059974;28;20187;-64
2022/01/05 06:41:50;;;;;;;1.53;1.20;;;3.40;99.90;;;;;;5068940;28;20187;-65
2022/01/05 06:44:16;;;;;;;2.00;1.60;;;3.50;99.90;;;;;;5065435;28;20185;-65
2022/01/05 06:46:42;;;;;;;2.93;1.53;;;3.50;99.90;;;;;;5054299;28;20467;-63
2022/01/05 06:49:07;;;;;;;1.67;1.57;;;3.50;99.90;;;;;;5055684;28;20624;-64
2022/01/05 06:51:33;;;;;;;1.70;1.60;;;3.50;99.90;;;;;;5055444;28;20205;-65
2022/01/05 06:53:58;;;;;;;0.73;0.70;;;3.50;99.90;;;;;;5054751;28;20169;-66
2022/01/05 06:56:24;;;;;;;1.60;1.50;;;3.50;99.90;;;;;;5055731;28;20648;-65
2022/01/05 06:58:50;;;;;;;0.93;0.93;;;3.50;99.90;;;;;;5060965;28;20177;-66
2022/01/05 07:01:16;;;;;;;2.70;1.40;;;3.50;99.90;;;;;;5063664;28;20184;-70
2022/01/05 07:03:42;;;;;;;1.80;1.70;;;3.50;99.90;;;;;;5058616;28;20639;-65
2022/01/05 07:06:07;;;;;;;0.90;0.90;;;3.50;99.90;;;;;;5055391;28;20169;-64
2022/01/05 07:08:33;;;;;;;1.20;1.10;;;3.60;99.90;;;;;;5057246;28;20199;-64
2022/01/05 07:10:59;;;;;;;0.93;0.93;;;3.60;99.90;;;;;;5069235;28;20227;-65
2022/01/05 07:13:24;;;;;;;1.00;1.00;;;3.60;99.90;;;;;;5062023;28;20177;-64
2022/01/05 07:15:50;;;;;;;1.63;1.60;;;3.60;99.90;;;;;;5075223;28;20172;-64
2022/01/05 07:18:16;;;;;;;1.93;1.47;;;3.60;99.90;;;;;;5074560;28;20670;-65
2022/01/05 07:20:41;;;;;;;1.50;1.07;;;3.50;99.90;;;;;;5062301;28;20268;-63
2022/01/05 07:23:08;;;;;;;0.73;0.73;;;3.40;99.90;;;;;;5055093;28;20256;-64
2022/01/05 07:25:34;;;;;;;1.60;1.50;;;3.40;99.90;;;;;;5055213;28;20176;-65
2022/01/05 07:28:00;;;;;;;0.53;0.53;;;3.40;99.90;;;;;;5055362;28;20193;-63
2022/01/05 07:30:26;;;;;;;2.30;1.13;;;3.30;99.90;;;;;;5055155;28;20181;-64
2022/01/05 07:32:52;;;;;;;1.90;0.60;;;3.30;99.90;;;;;;5054687;28;20491;-64
2022/01/05 07:35:18;;;;;;;0.65;0.65;;;3.30;99.90;;;;;;5055145;28;20890;-64
2022/01/05 07:37:44;;;;;;;1.27;1.27;;;3.30;99.90;;;;;;5055059;28;20219;-64
2022/01/05 07:40:10;;;;;;;0.57;0.50;;;3.20;99.90;;;;;;5054942;28;20184;-64
2022/01/05 07:42:36;;;;;;;0.65;0.65;;;3.20;99.90;;;;;;5054714;28;20197;-64
2022/01/05 07:45:04;;;;;;;1.00;1.00;;;3.10;99.90;;;;;;5055081;28;20636;-64
2022/01/05 07:47:30;;;;;;;1.50;1.40;;;3.10;99.90;;;;;;5054545;28;20471;-64
2022/01/05 07:49:56;;;;;;;1.40;1.30;;;3.20;99.90;;;;;;5053247;28;20181;-63
2022/01/05 07:52:21;;;;;;;0.73;0.73;;;3.20;99.90;;;;;;5054152;28;20216;-64
2022/01/05 07:54:47;;;;;;;0.80;0.80;;;3.20;99.90;;;;;;5054931;28;20651;-65
2022/01/05 07:57:13;;;;;;;1.43;1.33;;;3.20;99.90;;;;;;5054676;28;20196;-64
2022/01/05 07:59:38;;;;;;;2.33;1.50;;;3.20;99.90;;;;;;5054664;28;20166;-64
2022/01/05 08:02:04;;;;;;;2.20;2.10;;;3.30;99.90;;;;;;5054151;28;20252;-65
2022/01/05 08:04:30;;;;;;;0.85;0.85;;;3.30;99.90;;;;;;5054108;28;20181;-63
2022/01/05 08:06:55;;;;;;;1.13;1.10;;;3.30;99.90;;;;;;5054534;28;20543;-63
2022/01/05 08:09:21;;;;;;;0.87;0.60;;;3.30;99.90;;;;;;5054201;28;20169;-63
2022/01/05 08:11:47;;;;;;;1.53;1.43;;;3.30;99.90;;;;;;5054065;28;20197;-64
2022/01/05 08:14:12;;;;;;;1.00;1.00;;;3.30;99.90;;;;;;5054560;28;20169;-64
2022/01/05 08:16:38;;;;;;;3.00;1.63;;;3.30;99.90;;;;;;5052967;28;20224;-63
2022/01/05 08:19:04;;;;;;;1.73;1.63;;;3.30;99.90;;;;;;5054405;28;20647;-64
2022/01/05 08:21:30;;;;;;;4.27;0.90;;;3.30;99.90;;;;;;5053845;28;20263;-63
2022/01/05 08:23:55;;;;;;;1.57;1.50;;;3.30;99.90;;;;;;5054100;28;20256;-65
2022/01/05 08:26:21;;;;;;;2.20;2.00;;;3.30;99.90;;;;;;5054225;28;20208;-61
2022/01/05 08:28:46;;;;;;;1.17;1.17;;;3.30;99.90;;;;;;5054518;28;20183;-63
2022/01/05 08:31:13;;;;;;;0.70;0.70;;;3.30;99.90;;;;;;5053569;28;20203;-63
2022/01/05 08:33:38;;;;;;;1.25;1.15;;;3.30;99.90;;;;;;5053658;28;20170;-65
2022/01/05 08:36:04;;;;;;;2.43;1.80;;;3.40;99.90;;;;;;5053937;28;20187;-63
2022/01/05 08:38:32;;;;;;;1.45;1.30;;;3.40;99.90;;;;;;5053801;28;20592;-64
2022/01/05 08:40:57;;;;;;;1.15;1.15;;;3.50;99.90;;;;;;5053860;28;20205;-62
2022/01/05 08:43:23;;;;;;;4.53;1.20;;;3.50;99.90;;;;;;5053594;28;20205;-66
2022/01/05 08:45:49;;;;;;;3.60;1.50;;;3.60;99.90;;;;;;5064986;28;20785;-65
2022/01/05 08:48:15;;;;;;;1.53;1.43;;;3.60;99.90;;;;;;5073646;28;20197;-64
2022/01/05 08:50:42;;;;;;;1.38;1.27;;;3.60;99.90;;;;;;5073717;28;20856;-63
2022/01/05 08:53:09;;;;;;;2.03;1.55;;;3.60;99.90;;;;;;5073670;28;20169;-65
2022/01/05 08:55:41;;;;;;;1.00;1.00;;;3.70;99.90;;;;;;5073882;28;20164;-65
2022/01/05 08:58:08;;;;;;;1.23;1.23;;;3.70;99.90;;;;;;5073841;28;20593;-64
2022/01/05 09:00:35;;;;;;;0.98;0.98;;;3.70;99.90;;;;;;5073686;28;20290;-65
2022/01/05 09:03:01;;;;;;;2.05;1.33;;;3.60;99.90;;;;;;5073263;28;20169;-62
2022/01/05 09:05:26;;;;;;;3.10;2.60;;;3.50;99.90;;;;;;5073768;28;20195;-64
2022/01/05 09:07:53;;;;;;;2.13;1.43;;;3.60;99.90;;;;;;5073926;28;20462;-64
2022/01/05 09:10:18;;;;;;;1.88;1.77;;;4.10;99.90;;;;;;5073512;28;20262;-63
2022/01/05 09:12:45;;;;;;;1.10;1.10;;;4.80;99.90;;;;;;5072837;28;20210;-66
2022/01/05 09:15:11;;;;;;;2.00;1.00;;;5.60;99.90;;;;;;5072237;28;20631;-66
2022/01/05 09:17:37;;;;;;;1.25;0.80;;;6.40;99.90;;;;;;5073176;28;20222;-66
2022/01/05 09:20:04;;;;;;;2.20;1.53;;;7.20;99.90;;;;;;5073411;28;20516;-66
2022/01/05 09:22:30;;;;;;;1.15;0.88;;;7.80;99.90;;;;;;5072908;28;20405;-65
2022/01/05 09:24:56;;;;;;;4.72;0.90;;;8.20;99.90;;;;;;5073122;28;20574;-66
2022/01/05 09:27:21;;;;;;;1.03;0.73;;;8.10;99.90;;;;;;5073237;28;20194;-68
2022/01/05 09:29:47;;;;;;;2.07;1.07;;;7.80;99.90;;;;;;5073333;28;20197;-67
2022/01/05 09:32:13;;;;;;;0.70;0.70;;;7.10;99.90;;;;;;5072790;28;20234;-66
2022/01/05 09:34:41;;;;;;;1.60;1.50;;;6.60;99.90;;;;;;5071986;28;20631;-65
2022/01/05 09:37:18;;;;;;;0.93;0.82;;;6.10;99.90;;;;;;5072607;28;20196;-67
2022/01/05 09:42:30;;;;;;;1.40;1.30;;;5.40;99.90;;;;;;5076481;28;20546;-66
2022/01/05 09:44:57;;;;;;;6.05;1.10;;;5.40;99.90;;;;;;5069667;28;20259;-67
2022/01/05 09:47:51;;;;;;;1.10;1.10;;;5.20;99.90;;;;;;5056934;28;20207;-65
2022/01/05 09:50:19;;;;;;;0.80;0.80;;;5.10;99.90;;;;;;5057109;28;20171;-65
2022/01/05 09:52:46;;;;;;;1.23;1.20;;;5.00;99.90;;;;;;5056504;28;20184;-65
2022/01/05 09:55:13;;;;;;;2.35;0.82;;;4.90;99.90;;;;;;5057237;28;20213;-67
2022/01/05 09:57:41;;;;;;;3.60;0.80;;;4.80;99.90;;;;;;5056662;28;20195;-65
2022/01/05 10:00:09;;;;;;;1.38;1.17;;;4.80;99.90;;;;;;5057365;28;20181;-65
2022/01/05 10:02:35;;;;;;;1.60;1.50;;;4.60;99.90;;;;;;5056918;28;20177;-68
2022/01/05 10:05:02;;;;;;;1.13;1.00;;;4.50;99.90;;;;;;5056851;28;20260;-66
2022/01/05 10:07:28;;;;;;;1.58;1.20;;;4.40;99.90;;;;;;5056965;28;20195;-65
2022/01/05 10:09:53;;;;;;;2.03;1.30;;;4.40;99.90;;;;;;5056932;28;20178;-64
2022/01/05 10:12:20;;;;;;;0.80;0.80;;;4.40;99.90;;;;;;5056511;28;20973;-65
2022/01/05 10:14:48;;;;;;;2.40;1.10;;;4.40;99.90;;;;;;5056707;28;20207;-66
2022/01/05 10:17:22;;;;;;;6.60;1.15;;;4.40;99.90;;;;;;5056732;28;20280;-67
2022/01/05 10:19:59;;;;;;;0.85;0.85;;;4.70;99.90;;;;;;5056457;28;20567;-67
2022/01/05 10:22:37;;;;;;;0.93;0.93;;;5.40;99.90;;;;;;5056331;28;20172;-66
2022/01/05 10:25:24;;;;;;;2.15;1.00;;;6.00;99.90;;;;;;5056930;28;20172;-66
2022/01/05 10:28:03;;;;;;;2.35;1.52;;;6.30;99.90;;;;;;5056333;28;20561;-64
2022/01/05 10:30:41;;;;;;;0.98;0.63;;;6.10;99.90;;;;;;5056457;28;20191;-63
2022/01/05 10:33:07;;;;;;;3.42;1.05;;;5.90;99.90;;;;;;5055854;28;20172;-63
2022/01/05 10:35:34;;;;;;;1.77;1.40;;;5.80;99.90;;;;;;5056352;28;20177;-64
2022/01/05 10:38:05;;;;;;;1.52;1.40;;;6.20;99.90;;;;;;5056310;28;20185;-64
2022/01/05 10:40:35;;;;;;;1.20;1.10;;;6.50;99.90;;;;;;5056420;28;20193;-67
2022/01/05 10:43:07;;;;;;;1.20;1.10;;;6.80;99.90;;;;;;5055506;28;20169;-66
2022/01/05 10:45:42;;;;;;;3.70;1.27;;;7.10;99.90;;;;;;5054269;28;20170;-65
2022/01/05 10:48:08;;;;;;;1.08;1.08;;;7.50;99.90;;;;;;5053869;28;20185;-64
2022/01/05 10:50:34;;;;;;;1.00;1.00;;;7.80;99.90;;;;;;5053779;28;20169;-64
2022/01/05 10:53:00;;;;;;;1.20;1.10;;;7.80;99.50;;;;;;5052418;28;20269;-64
2022/01/05 10:55:28;;;;;;;4.13;1.42;;;7.80;99.80;;;;;;5053946;28;20181;-65
2022/01/05 10:58:05;;;;;;;1.65;0.85;;;7.70;99.70;;;;;;5054322;28;20205;-65
2022/01/05 11:00:41;;;;;;;1.48;0.70;;;7.70;99.90;;;;;;5055895;28;20169;-64
2022/01/05 11:03:39;;;;;;;0.68;0.68;;;7.80;99.90;;;;;;5055702;28;20166;-65
2022/01/05 11:06:12;;;;;;;0.85;0.68;;;7.90;99.40;;;;;;5054440;28;20632;-63
2022/01/05 11:08:56;;;;;;;2.72;1.13;;;7.90;98.90;;;;;;5055908;28;20235;-63
2022/01/05 11:11:39;;;;;;;1.55;0.70;;;7.70;98.80;;;;;;5055316;28;20605;-64
2022/01/05 11:14:08;;;;;;;1.67;0.80;;;7.30;99.30;;;;;;5055664;28;20224;-65
2022/01/05 11:16:37;;;;;;;6.43;2.80;;;7.00;99.40;;;;;;5055250;28;20189;-64
2022/01/05 11:19:22;;;;;;;2.67;0.73;;;6.80;99.80;;;;;;5055808;28;20166;-64
2022/01/05 11:21:58;;;;;;;0.85;0.82;;;6.60;99.90;;;;;;5055065;28;20631;-64
2022/01/05 11:24:25;;;;;;;1.27;1.10;;;6.30;99.90;;;;;;5068481;28;20188;-64
2022/01/05 11:26:52;;;;;;;0.90;0.70;;;6.20;99.90;;;;;;5075147;28;20282;-64
2022/01/05 11:29:19;;;;;;;1.10;1.00;;;6.10;99.90;;;;;;5075318;28;20205;-64
2022/01/05 11:31:45;;;;;;;2.20;2.00;;;6.10;99.90;;;;;;5074956;28;20796;-64
2022/01/05 11:34:11;;;;;;;3.78;0.75;;;6.10;99.90;;;;;;5074134;28;20313;-65
2022/01/05 11:36:41;;;;;;;3.67;2.42;;;6.00;99.90;;;;;;5075401;28;20188;-66
2022/01/05 11:39:08;;;;;;;0.88;0.85;;;5.90;99.90;;;;;;5075126;28;20634;-66
2022/01/05 11:41:39;;;;;;;0.93;0.93;;;5.80;99.90;;;;;;5074578;28;20250;-65
2022/01/05 11:44:06;;;;;;;2.30;0.82;;;5.60;99.90;;;;;;5075082;28;20748;-63
2022/01/05 11:46:32;;;;;;;2.25;1.10;;;5.50;99.90;;;;;;5057167;28;20281;-67
2022/01/05 11:49:08;;;;;;;3.40;1.43;;;5.40;99.90;;;;;;5054732;28;20207;-63
2022/01/05 11:51:42;;;;;;;0.80;0.80;;;5.40;99.90;;;;;;5054299;28;20466;-66
2022/01/05 11:54:31;;;;;;;0.88;0.82;;;5.50;99.90;;;;;;5055079;28;20180;-63
2022/01/05 11:57:12;;;;;;;0.90;0.90;;;5.50;99.90;;;;;;5054751;28;20714;-64
2022/01/05 11:59:42;;;;;;;1.30;1.20;;;5.50;99.90;;;;;;5055079;28;20564;-67
2022/01/05 12:02:14;;;;;;;1.63;1.52;;;5.50;99.90;;;;;;5054360;28;20177;-65
2022/01/05 12:04:51;;;;;;;1.25;1.20;;;5.60;99.90;;;;;;5054274;28;20213;-66
2022/01/05 12:07:39;;;;;;;6.65;1.95;;;5.60;99.90;;;;;;5054465;28;20204;-64
2022/01/05 12:10:17;;;;;;;1.80;0.95;;;5.60;99.90;;;;;;5054344;28;20174;-64
2022/01/05 12:13:12;;;;;;;0.70;0.70;;;5.60;99.90;;;;;;5054095;28;20200;-65
2022/01/05 12:15:43;;;;;;;1.20;1.10;;;5.70;99.90;;;;;;5045472;28;20227;-64
2022/01/05 12:18:19;;;;;;;1.60;0.90;;;5.70;99.90;;;;;;5054022;28;20199;-65
2022/01/05 12:20:45;;;;;;;1.48;1.38;;;5.70;99.90;;;;;;5054273;28;20159;-65
2022/01/05 12:23:30;;;;;;;1.87;1.30;;;5.70;99.90;;;;;;5053880;28;20331;-65
2022/01/05 12:26:15;;;;;;;0.80;0.80;;;5.50;99.90;;;;;;5054045;28;20184;-64
2022/01/05 12:28:51;;;;;;;1.02;0.90;;;5.40;99.90;;;;;;5054059;28;20221;-65
2022/01/05 12:31:17;;;;;;;3.65;1.05;;;5.40;99.90;;;;;;5053836;28;20227;-64
2022/01/05 12:33:51;;;;;;;1.40;1.30;;;5.30;99.90;;;;;;5053999;28;20199;-63
2022/01/05 12:36:38;;;;;;;1.00;0.98;;;5.20;99.90;;;;;;5053954;28;20192;-62
2022/01/05 12:39:06;;;;;;;1.48;1.38;;;5.10;99.90;;;;;;5053973;28;20264;-64
2022/01/05 12:41:34;;;;;;;1.45;0.90;;;5.10;99.90;;;;;;5053288;28;20167;-64
2022/01/05 12:44:10;;;;;;;1.38;1.23;;;5.00;99.90;;;;;;5053922;28;20574;-63
2022/01/05 12:46:46;;;;;;;2.25;2.05;;;5.00;99.90;;;;;;5053521;28;20235;-64
2022/01/05 12:49:16;;;;;;;1.42;1.33;;;4.90;99.90;;;;;;5059791;28;20275;-65
2022/01/05 12:51:48;;;;;;;2.20;1.52;;;4.80;99.90;;;;;;5073025;28;20193;-65
2022/01/05 12:54:28;;;;;;;0.93;0.82;;;4.70;99.90;;;;;;5073871;28;20687;-63
2022/01/05 12:57:00;;;;;;;1.35;1.25;;;4.50;99.90;;;;;;5073915;28;20215;-66
2022/01/05 12:59:36;;;;;;;1.35;0.60;;;4.40;99.90;;;;;;5073184;28;20195;-66
2022/01/05 13:02:24;;;;;;;1.52;1.05;;;4.30;99.90;;;;;;5073013;28;20203;-66